Time;durP1;ratioP1;P1;durP2;ratioP2;P2;SDS_P1;SDS_P2;PMS_P1;PMS_P2;Temp;Humidity;BMP_temperature;BMP_pressure;BME280_temperature;BME280_humidity;BME280_pressure;Samples;Min_cycle;Max_cycle;Signal;HPM_P1;HPM_P2
2021/01/29 00:01:55;;;;;;;9.50;1.90;;;9.10;99.90;;;;;;5051322;28;20053;-93
2021/01/29 00:04:22;;;;;;;10.00;2.10;;;9.10;99.90;;;;;;5038663;28;20083;-95
2021/01/29 00:06:47;;;;;;;8.25;3.08;;;9.10;99.90;;;;;;5048768;28;20056;-92
2021/01/29 00:09:13;;;;;;;5.82;2.30;;;9.20;99.90;;;;;;5039248;28;20053;-95
2021/01/29 00:11:39;;;;;;;14.88;2.83;;;9.10;99.90;;;;;;5041635;28;20506;-94
2021/01/29 00:14:04;;;;;;;11.75;3.13;;;9.10;99.90;;;;;;5035012;28;20377;-94
2021/01/29 00:16:30;;;;;;;14.40;3.60;;;9.10;99.90;;;;;;5039727;28;20029;-94
2021/01/29 00:18:56;;;;;;;19.58;4.55;;;9.10;99.90;;;;;;5031786;28;20108;-94
2021/01/29 00:21:21;;;;;;;17.95;4.72;;;9.10;99.90;;;;;;5037476;28;20060;-93
2021/01/29 00:23:47;;;;;;;10.73;3.97;;;9.10;99.90;;;;;;5048637;28;20033;-94
2021/01/29 00:26:13;;;;;;;14.27;4.47;;;9.10;99.90;;;;;;5034897;28;20118;-94
2021/01/29 00:28:38;;;;;;;15.38;4.57;;;9.10;99.90;;;;;;5040530;28;20025;-94
2021/01/29 00:31:04;;;;;;;18.92;5.70;;;9.10;99.90;;;;;;5036341;28;20186;-95
2021/01/29 00:33:32;;;;;;;17.92;5.25;;;9.10;99.90;;;;;;5047315;28;20016;-93
2021/01/29 00:35:58;;;;;;;14.65;5.07;;;9.10;99.90;;;;;;5043771;28;20018;-94
2021/01/29 00:38:26;;;;;;;17.00;4.80;;;9.10;99.90;;;;;;5044732;28;20028;-94
2021/01/29 00:40:54;;;;;;;16.67;4.15;;;9.10;99.90;;;;;;5048707;28;20055;-93
2021/01/29 00:43:20;;;;;;;11.27;2.83;;;9.10;99.90;;;;;;5039300;28;20022;-94
2021/01/29 00:45:46;;;;;;;18.15;3.92;;;9.10;99.90;;;;;;5039531;28;20025;-93
2021/01/29 00:48:12;;;;;;;15.82;4.30;;;9.10;99.90;;;;;;5038344;28;20123;-95
2021/01/29 00:50:39;;;;;;;13.57;3.67;;;9.10;99.90;;;;;;5039955;28;20112;-94
2021/01/29 00:53:06;;;;;;;15.95;5.85;;;9.00;99.90;;;;;;5044493;28;20038;-94
2021/01/29 00:55:32;;;;;;;12.38;5.97;;;9.00;99.90;;;;;;5038706;28;20025;-95
2021/01/29 00:57:58;;;;;;;22.10;8.43;;;9.10;99.90;;;;;;5048788;28;20021;-93
2021/01/29 01:00:24;;;;;;;25.83;7.90;;;9.10;99.90;;;;;;5050180;28;20028;-94
2021/01/29 01:02:51;;;;;;;24.95;8.02;;;9.10;99.90;;;;;;5050478;28;20399;-92
2021/01/29 01:05:18;;;;;;;22.63;8.48;;;9.00;99.90;;;;;;5050937;28;20108;-93
2021/01/29 01:07:44;;;;;;;26.13;7.68;;;9.10;99.90;;;;;;5051160;28;20017;-94
2021/01/29 01:10:14;;;;;;;27.95;8.20;;;9.00;99.90;;;;;;5055449;28;20021;-94
2021/01/29 01:12:40;;;;;;;23.60;7.40;;;9.00;99.90;;;;;;5048353;28;20096;-93
2021/01/29 01:15:14;;;;;;;20.35;8.32;;;9.00;99.90;;;;;;5050808;28;20017;-92
2021/01/29 01:17:41;;;;;;;25.60;5.93;;;9.00;99.90;;;;;;5046599;28;20086;-92
2021/01/29 01:20:09;;;;;;;19.42;6.40;;;9.00;99.90;;;;;;5050699;28;20033;-92
2021/01/29 01:22:34;;;;;;;21.67;5.05;;;9.10;99.90;;;;;;5050268;28;20048;-94
2021/01/29 01:25:00;;;;;;;21.90;6.18;;;9.10;99.90;;;;;;5050430;28;20068;-91
2021/01/29 01:27:26;;;;;;;26.45;7.20;;;9.10;99.90;;;;;;5050327;28;20029;-93
2021/01/29 01:29:52;;;;;;;15.20;4.90;;;9.00;99.90;;;;;;5038923;28;20041;-94
2021/01/29 01:32:17;;;;;;;28.40;7.00;;;9.00;99.90;;;;;;5039208;28;20785;-93
2021/01/29 01:34:43;;;;;;;31.17;7.72;;;9.00;99.90;;;;;;5039521;28;20025;-95
2021/01/29 01:37:09;;;;;;;23.65;7.25;;;9.00;99.90;;;;;;5042074;28;20032;-93
2021/01/29 01:39:34;;;;;;;19.83;6.40;;;9.00;99.90;;;;;;5053036;28;20021;-95
2021/01/29 01:42:00;;;;;;;21.67;6.80;;;9.00;99.90;;;;;;5028744;28;20124;-95
2021/01/29 01:44:35;;;;;;;29.95;8.13;;;9.00;99.90;;;;;;5053954;28;20479;-96
2021/01/29 01:47:07;;;;;;;26.40;7.50;;;8.90;99.90;;;;;;5051092;28;20028;-96
2021/01/29 01:49:35;;;;;;;28.38;7.18;;;8.90;99.90;;;;;;5053554;28;20024;-95
2021/01/29 01:52:12;;;;;;;17.85;5.13;;;8.90;99.90;;;;;;5055751;28;20120;-95
2021/01/29 01:54:47;;;;;;;24.67;5.22;;;8.90;99.90;;;;;;5070120;28;20502;-96
2021/01/29 01:57:15;;;;;;;24.27;5.28;;;8.80;99.90;;;;;;5071508;28;20029;-95
2021/01/29 01:59:52;;;;;;;16.63;5.95;;;8.80;99.90;;;;;;5059807;28;20025;-95
2021/01/29 02:02:22;;;;;;;15.38;4.82;;;8.80;99.90;;;;;;5060891;28;20071;-94
2021/01/29 02:04:49;;;;;;;21.52;6.82;;;8.80;99.90;;;;;;5061678;28;20032;-96
2021/01/29 02:07:22;;;;;;;23.02;7.32;;;8.80;99.90;;;;;;5057337;28;20040;-94
2021/01/29 02:09:50;;;;;;;17.20;8.00;;;8.80;99.90;;;;;;5057561;28;20106;-94
2021/01/29 02:12:20;;;;;;;26.58;7.57;;;8.80;99.90;;;;;;5065887;28;20052;-95
2021/01/29 02:14:46;;;;;;;16.70;6.63;;;8.70;99.90;;;;;;5053002;28;20109;-95
2021/01/29 02:17:42;;;;;;;20.33;6.80;;;8.70;99.90;;;;;;5054445;28;20131;-96
2021/01/29 02:20:23;;;;;;;19.58;6.07;;;8.70;99.90;;;;;;5053086;28;20052;-95
2021/01/29 02:23:11;;;;;;;22.77;5.97;;;8.70;99.90;;;;;;5043892;28;20033;-95
2021/01/29 02:25:43;;;;;;;20.55;7.28;;;8.70;99.90;;;;;;5034946;28;20106;-95
2021/01/29 02:28:43;;;;;;;22.13;6.25;;;8.70;99.90;;;;;;5053695;28;20033;-94
2021/01/29 02:31:39;;;;;;;20.48;6.13;;;8.60;99.90;;;;;;5015833;28;20076;-95
2021/01/29 02:34:23;;;;;;;24.30;5.50;;;8.60;99.90;;;;;;5052533;28;20032;-95
2021/01/29 02:37:26;;;;;;;27.60;5.57;;;8.60;99.90;;;;;;5054207;28;20025;-94
2021/01/29 02:40:04;;;;;;;19.65;5.50;;;8.60;99.90;;;;;;5052688;28;20096;-94
2021/01/29 02:42:35;;;;;;;37.08;7.18;;;8.60;99.90;;;;;;5051906;28;20456;-94
2021/01/29 02:45:04;;;;;;;;;;;8.60;99.90;;;;;;5050916;28;20108;-95
2021/01/29 02:47:35;;;;;;;34.03;7.35;;;8.50;99.90;;;;;;5052828;28;19911;-94
2021/01/29 02:50:24;;;;;;;25.02;5.72;;;8.50;99.90;;;;;;5050615;28;20028;-95
2021/01/29 02:53:28;;;;;;;24.52;7.22;;;8.50;99.90;;;;;;5051994;28;20076;-95
2021/01/29 02:56:04;;;;;;;28.33;8.30;;;8.50;99.90;;;;;;5049911;28;20029;-94
2021/01/29 02:58:43;;;;;;;32.17;8.90;;;8.40;99.90;;;;;;5052972;28;20017;-94
2021/01/29 03:01:37;;;;;;;30.92;9.48;;;8.40;99.90;;;;;;5052670;28;20045;-94
2021/01/29 03:04:08;;;;;;;40.30;8.68;;;8.40;99.90;;;;;;5050685;28;20159;-93
2021/01/29 03:06:45;;;;;;;23.80;8.60;;;8.30;99.90;;;;;;5052778;28;20518;-94
2021/01/29 03:09:21;;;;;;;26.45;7.35;;;8.30;99.90;;;;;;5052464;28;20017;-94
2021/01/29 03:12:08;;;;;;;20.77;6.85;;;8.30;99.90;;;;;;5050279;28;20036;-94
2021/01/29 03:14:45;;;;;;;39.03;8.90;;;8.30;99.90;;;;;;5052419;28;20033;-95
2021/01/29 03:17:35;;;;;;;26.70;8.38;;;8.20;99.90;;;;;;5052187;28;20059;-94
2021/01/29 03:20:04;;;;;;;29.65;9.05;;;8.20;99.90;;;;;;5051095;28;20026;-94
2021/01/29 03:22:36;;;;;;;25.73;8.35;;;8.10;99.90;;;;;;5051011;28;20087;-94
2021/01/29 03:25:09;;;;;;;29.98;8.60;;;8.10;99.90;;;;;;5051233;28;20065;-93
2021/01/29 03:27:41;;;;;;;30.85;8.27;;;8.10;99.90;;;;;;5052905;28;20063;-94
2021/01/29 03:30:21;;;;;;;35.80;10.48;;;8.10;99.90;;;;;;5052636;28;20021;-94
2021/01/29 03:32:51;;;;;;;27.73;8.90;;;8.00;99.90;;;;;;5052526;28;20037;-94
2021/01/29 03:35:26;;;;;;;32.78;8.60;;;8.00;99.90;;;;;;5052642;28;20074;-94
2021/01/29 03:38:08;;;;;;;33.33;9.60;;;8.00;99.90;;;;;;5052839;28;20040;-93
2021/01/29 03:40:38;;;;;;;38.35;8.05;;;7.90;99.90;;;;;;5052472;28;20450;-94
2021/01/29 03:43:25;;;;;;;32.25;7.40;;;8.00;99.90;;;;;;5035759;28;20052;-94
2021/01/29 03:46:19;;;;;;;40.90;8.77;;;7.90;99.90;;;;;;5032781;28;20041;-95
2021/01/29 03:49:08;;;;;;;32.92;6.13;;;7.90;99.90;;;;;;5032540;28;20033;-94
2021/01/29 03:51:51;;;;;;;28.40;5.35;;;7.80;99.90;;;;;;5033509;28;20033;-93
2021/01/29 03:54:26;;;;;;;25.30;4.82;;;7.80;99.90;;;;;;5032022;28;20033;-94
2021/01/29 03:57:06;;;;;;;34.17;6.32;;;7.90;99.90;;;;;;5032043;28;20057;-93
2021/01/29 03:59:47;;;;;;;27.10;5.45;;;7.80;99.90;;;;;;5032719;28;20025;-94
2021/01/29 04:02:16;;;;;;;;;;;7.80;99.90;;;;;;5033169;28;20049;-94
2021/01/29 04:05:13;;;;;;;23.08;4.20;;;7.80;99.90;;;;;;5031899;28;19939;-95
2021/01/29 04:08:06;;;;;;;22.40;4.18;;;7.80;99.90;;;;;;5032014;28;20051;-93
2021/01/29 04:10:32;;;;;;;22.98;3.90;;;7.80;99.90;;;;;;5032460;28;20519;-95
2021/01/29 04:13:12;;;;;;;20.83;3.83;;;7.80;99.90;;;;;;5032281;28;20034;-93
2021/01/29 04:15:41;;;;;;;25.07;5.80;;;7.70;99.90;;;;;;5032205;28;20021;-94
2021/01/29 04:18:27;;;;;;;25.63;6.25;;;7.80;99.90;;;;;;5031753;28;20287;-95
2021/01/29 04:21:03;;;;;;;30.63;3.72;;;7.70;99.90;;;;;;5031926;28;20049;-93
2021/01/29 04:23:52;;;;;;;21.75;2.53;;;7.70;99.90;;;;;;5031944;28;20061;-94
2021/01/29 04:26:22;;;;;;;23.10;3.05;;;7.70;99.90;;;;;;5031786;28;20037;-94
2021/01/29 04:28:54;;;;;;;30.42;3.35;;;7.70;99.90;;;;;;5031805;28;20034;-95
2021/01/29 04:31:22;;;;;;;20.13;2.85;;;7.70;99.90;;;;;;5031947;28;20038;-96
2021/01/29 04:33:57;;;;;;;21.15;3.08;;;7.70;99.90;;;;;;5031380;28;20484;-94
2021/01/29 04:36:28;;;;;;;17.27;2.83;;;7.70;99.90;;;;;;5031785;28;20029;-94
2021/01/29 04:39:06;;;;;;;27.98;5.72;;;7.60;99.90;;;;;;5031858;28;20021;-95
2021/01/29 04:41:32;;;;;;;24.98;3.20;;;7.60;99.90;;;;;;5031735;28;20049;-95
2021/01/29 04:44:24;;;;;;;23.77;4.47;;;7.60;99.90;;;;;;5031658;28;20033;-96
2021/01/29 04:47:12;;;;;;;27.85;3.97;;;7.60;99.90;;;;;;5031534;28;20030;-95
2021/01/29 04:50:06;;;;;;;15.15;2.58;;;7.60;99.90;;;;;;5031631;28;20083;-96
2021/01/29 04:52:54;;;;;;;20.83;3.05;;;7.60;99.90;;;;;;5031711;28;20128;-94
2021/01/29 04:55:38;;;;;;;15.95;3.08;;;7.60;99.90;;;;;;5031877;28;20029;-95
2021/01/29 04:58:59;;;;;;;24.88;3.33;;;7.60;99.90;;;;;;5031503;28;20033;-95
2021/01/29 05:01:35;;;;;;;25.17;3.38;;;7.60;99.90;;;;;;4923796;28;20133;-95
2021/01/29 05:04:45;;;;;;;21.08;3.85;;;7.60;99.90;;;;;;4956196;28;20151;-93
2021/01/29 05:07:30;;;;;;;33.40;3.38;;;7.60;99.90;;;;;;4955817;28;20027;-94
2021/01/29 05:10:07;;;;;;;29.95;4.03;;;7.60;99.90;;;;;;4955716;28;20039;-94
2021/01/29 05:13:10;;;;;;;30.27;4.10;;;7.60;99.90;;;;;;4960796;28;20057;-95
2021/01/29 05:16:15;;;;;;;24.77;2.85;;;7.60;99.90;;;;;;4965754;28;20076;-92
2021/01/29 05:18:41;;;;;;;27.15;2.70;;;7.60;99.90;;;;;;4961524;28;20043;-94
2021/01/29 05:21:47;;;;;;;28.20;5.18;;;7.60;99.90;;;;;;4960468;28;20027;-94
2021/01/29 05:24:50;;;;;;;22.55;2.72;;;7.60;99.90;;;;;;4971555;28;20027;-94
2021/01/29 05:27:21;;;;;;;27.48;3.10;;;7.60;99.90;;;;;;4956485;28;20023;-95
2021/01/29 05:30:20;;;;;;;21.55;3.63;;;7.50;99.90;;;;;;4955122;28;20043;-95
2021/01/29 05:33:07;;;;;;;27.27;4.43;;;7.50;99.90;;;;;;4955067;28;20042;-94
2021/01/29 05:36:15;;;;;;;26.98;3.70;;;7.50;99.90;;;;;;5006492;28;20036;-94
2021/01/29 05:39:16;;;;;;;17.70;3.97;;;7.50;99.90;;;;;;5030982;28;20022;-94
2021/01/29 05:42:00;;;;;;;;;;;7.50;99.90;;;;;;5031489;28;20029;-93
2021/01/29 05:44:47;;;;;;;36.13;4.75;;;7.50;99.90;;;;;;5030574;28;19905;-94
2021/01/29 05:47:40;;;;;;;34.80;5.03;;;7.50;99.90;;;;;;5034566;28;20021;-93
2021/01/29 05:50:06;;;;;;;31.45;4.38;;;7.40;99.90;;;;;;5034577;28;20033;-95
2021/01/29 05:52:55;;;;;;;32.15;4.90;;;7.50;99.90;;;;;;5037051;28;20061;-93
2021/01/29 05:55:28;;;;;;;29.35;3.20;;;7.50;99.90;;;;;;5038243;28;20477;-95
2021/01/29 05:58:18;;;;;;;36.33;4.32;;;7.40;99.90;;;;;;5039524;28;20049;-95
2021/01/29 06:01:06;;;;;;;31.50;4.10;;;7.40;99.90;;;;;;5041291;28;20028;-95
2021/01/29 06:03:53;;;;;;;27.60;4.65;;;7.40;99.90;;;;;;5042946;28;20029;-96
2021/01/29 06:06:39;;;;;;;37.97;5.93;;;7.40;99.90;;;;;;5060569;28;20029;-95
2021/01/29 06:09:17;;;;;;;34.60;3.47;;;7.40;99.90;;;;;;5065851;28;20032;-96
2021/01/29 06:12:17;;;;;;;36.67;4.05;;;7.40;99.90;;;;;;5060698;28;20041;-96
2021/01/29 06:15:05;;;;;;;31.40;4.22;;;7.40;99.90;;;;;;5057366;28;20017;-96
2021/01/29 06:18:08;;;;;;;34.75;4.88;;;7.30;99.90;;;;;;5051158;28;20029;-95
2021/01/29 06:20:56;;;;;;;41.40;5.47;;;7.30;99.90;;;;;;5052489;28;20100;-95
2021/01/29 06:23:38;;;;;;;31.05;4.75;;;7.30;99.90;;;;;;5059894;28;20052;-95
2021/01/29 06:26:37;;;;;;;26.80;5.13;;;7.30;99.90;;;;;;5062320;28;20053;-96
2021/01/29 06:29:18;;;;;;;31.35;4.93;;;7.30;99.90;;;;;;5065103;28;20075;-96
2021/01/29 06:32:15;;;;;;;30.55;6.85;;;7.30;99.90;;;;;;5066449;28;20053;-94
2021/01/29 06:35:19;;;;;;;23.48;5.57;;;7.30;99.90;;;;;;5061131;28;20033;-94
2021/01/29 06:38:12;;;;;;;32.17;6.38;;;7.20;99.90;;;;;;5058237;28;20021;-95
2021/01/29 06:40:51;;;;;;;40.80;6.65;;;7.20;99.90;;;;;;5055440;28;20044;-96
2021/01/29 06:43:35;;;;;;;28.65;6.13;;;7.20;99.90;;;;;;5055902;28;20017;-94
2021/01/29 06:46:07;;;;;;;26.80;6.70;;;7.20;99.90;;;;;;5064065;28;20110;-94
2021/01/29 06:49:03;;;;;;;36.08;7.70;;;7.20;99.90;;;;;;5059822;28;20025;-94
2021/01/29 06:52:02;;;;;;;35.00;7.88;;;7.20;99.90;;;;;;5068074;28;20036;-94
2021/01/29 06:55:12;;;;;;;31.95;8.00;;;7.20;99.90;;;;;;5055973;28;20024;-95
2021/01/29 06:57:50;;;;;;;30.75;7.18;;;7.20;99.90;;;;;;5044016;28;20471;-95
2021/01/29 07:00:37;;;;;;;28.70;6.65;;;7.20;99.90;;;;;;5057144;28;20052;-94
2021/01/29 07:03:45;;;;;;;28.08;8.23;;;7.20;99.90;;;;;;5061547;28;20049;-93
2021/01/29 07:06:17;;;;;;;20.73;5.78;;;7.20;99.90;;;;;;5058527;28;20546;-95
2021/01/29 07:09:07;;;;;;;26.85;6.57;;;7.20;99.90;;;;;;5062873;28;20075;-95
2021/01/29 07:11:33;;;;;;;30.17;7.63;;;7.20;99.90;;;;;;5055516;28;20041;-95
2021/01/29 07:14:20;;;;;;;34.28;8.40;;;7.20;99.90;;;;;;5057081;28;20017;-95
2021/01/29 07:17:19;;;;;;;25.58;7.97;;;7.30;99.90;;;;;;5053212;28;20057;-95
2021/01/29 07:20:06;;;;;;;26.42;8.32;;;7.20;99.90;;;;;;5052658;28;20810;-95
2021/01/29 07:22:40;;;;;;;31.88;9.38;;;7.20;99.90;;;;;;5053015;28;20044;-94
2021/01/29 07:25:28;;;;;;;34.25;10.98;;;7.20;99.90;;;;;;5051078;28;20395;-95
2021/01/29 07:27:59;;;;;;;28.60;8.52;;;7.20;99.90;;;;;;5052535;28;20068;-94
2021/01/29 07:31:05;;;;;;;29.58;9.20;;;7.20;99.90;;;;;;5052604;28;20028;-94
2021/01/29 07:36:55;;;;;;;33.08;10.15;;;7.20;99.90;;;;;;5053746;28;20529;-94
2021/01/29 07:39:44;;;;;;;30.90;10.13;;;7.20;99.90;;;;;;5050114;28;20033;-93
2021/01/29 07:42:38;;;;;;;34.10;9.85;;;7.20;99.90;;;;;;5051495;28;20041;-94
2021/01/29 07:45:10;;;;;;;29.02;9.38;;;7.20;99.90;;;;;;5049621;28;20040;-93
2021/01/29 07:47:57;;;;;;;30.15;10.00;;;7.20;99.90;;;;;;5051925;28;20025;-93
2021/01/29 07:50:38;;;;;;;29.98;11.32;;;7.20;99.90;;;;;;5050894;28;20108;-94
2021/01/29 07:53:29;;;;;;;27.65;9.43;;;7.20;99.90;;;;;;5052065;28;20029;-95
2021/01/29 07:56:13;;;;;;;30.33;11.70;;;7.20;99.90;;;;;;5051419;28;20033;-95
2021/01/29 07:58:46;;;;;;;25.73;10.57;;;7.20;99.90;;;;;;5053684;28;20123;-94
2021/01/29 08:01:36;;;;;;;35.97;12.50;;;7.20;99.90;;;;;;5053694;28;20067;-95
2021/01/29 08:04:16;;;;;;;34.85;11.55;;;7.20;99.90;;;;;;5052617;28;20119;-93
2021/01/29 08:06:50;;;;;;;29.10;10.50;;;7.20;99.90;;;;;;5061791;28;20032;-95
2021/01/29 08:09:19;;;;;;;29.60;9.27;;;7.20;99.90;;;;;;5053061;28;20036;-94
2021/01/29 08:11:51;;;;;;;28.33;7.60;;;7.20;99.90;;;;;;5053935;28;20088;-95
2021/01/29 08:14:20;;;;;;;30.98;8.45;;;7.20;99.90;;;;;;5060442;28;20021;-95
2021/01/29 08:16:59;;;;;;;20.50;5.95;;;7.20;99.90;;;;;;5065643;28;20067;-95
2021/01/29 08:19:42;;;;;;;24.05;5.43;;;7.20;99.90;;;;;;5055488;28;20045;-94
2021/01/29 08:22:34;;;;;;;27.92;5.45;;;7.20;99.90;;;;;;5050713;28;20048;-94
2021/01/29 08:25:29;;;;;;;19.65;4.97;;;7.20;99.90;;;;;;5059850;28;20094;-93
2021/01/29 08:28:15;;;;;;;32.40;6.07;;;7.20;99.90;;;;;;5060833;28;20025;-94
2021/01/29 08:31:11;;;;;;;29.80;5.55;;;7.30;99.90;;;;;;5065823;28;20033;-96
2021/01/29 08:34:23;;;;;;;26.73;5.38;;;7.30;99.90;;;;;;5073899;28;20037;-96
2021/01/29 08:36:52;;;;;;;21.92;6.40;;;7.30;99.90;;;;;;5066917;28;20025;-94
2021/01/29 08:39:43;;;;;;;32.47;6.45;;;7.30;99.90;;;;;;5062955;28;20447;-94
2021/01/29 08:42:33;;;;;;;43.42;6.85;;;7.30;99.90;;;;;;5069863;28;20058;-92
2021/01/29 08:45:07;;;;;;;29.98;5.53;;;7.30;99.90;;;;;;5062430;28;20047;-94
2021/01/29 08:47:54;;;;;;;29.17;6.15;;;7.30;99.90;;;;;;5061116;28;20083;-93
2021/01/29 08:50:55;;;;;;;28.48;6.28;;;7.30;99.90;;;;;;5058687;28;20032;-93
2021/01/29 08:53:52;;;;;;;41.28;6.85;;;7.40;99.90;;;;;;5032558;28;20044;-94
2021/01/29 08:56:24;;;;;;;36.78;6.68;;;7.40;99.90;;;;;;5052996;28;20029;-94
2021/01/29 08:58:53;;;;;;;34.90;4.82;;;7.40;99.90;;;;;;5053463;28;20037;-93
2021/01/29 09:01:28;;;;;;;43.22;7.45;;;7.40;99.90;;;;;;5019321;28;20037;-94
2021/01/29 09:04:02;;;;;;;25.52;7.20;;;7.40;99.90;;;;;;5038997;28;20571;-94
2021/01/29 09:06:36;;;;;;;29.45;5.90;;;7.40;99.90;;;;;;5048828;28;20018;-94
2021/01/29 09:09:06;;;;;;;33.83;6.10;;;7.40;99.90;;;;;;5045036;28;20045;-95
2021/01/29 09:11:42;;;;;;;30.25;6.53;;;7.40;99.90;;;;;;5040796;28;20043;-94
2021/01/29 09:14:18;;;;;;;37.60;7.47;;;7.40;99.90;;;;;;5043492;28;20120;-94
2021/01/29 09:16:45;;;;;;;21.60;5.05;;;7.50;99.90;;;;;;5042039;28;20063;-95
2021/01/29 09:19:14;;;;;;;31.98;6.28;;;7.50;99.90;;;;;;5043599;28;20017;-93
2021/01/29 09:21:58;;;;;;;27.58;6.88;;;7.50;99.90;;;;;;5045696;28;20082;-92
2021/01/29 09:24:53;;;;;;;23.88;5.50;;;7.50;99.90;;;;;;5042514;28;20017;-93
2021/01/29 09:27:44;;;;;;;36.50;8.45;;;7.50;99.90;;;;;;5047167;28;20029;-94
2021/01/29 09:30:14;;;;;;;;;;;7.50;99.90;;;;;;5045446;28;20030;-92
2021/01/29 09:32:50;;;;;;;25.17;6.05;;;7.50;99.90;;;;;;5045235;28;19913;-93
2021/01/29 09:35:34;;;;;;;27.58;7.10;;;7.50;99.90;;;;;;5047698;28;20041;-93
2021/01/29 09:38:02;;;;;;;26.92;4.97;;;7.50;99.90;;;;;;5045945;28;20017;-93
2021/01/29 09:40:45;;;;;;;26.33;4.50;;;7.50;99.90;;;;;;5044721;28;20037;-91
2021/01/29 09:43:25;;;;;;;28.52;4.68;;;7.60;99.90;;;;;;5049009;28;20100;-92
2021/01/29 09:45:55;;;;;;;25.80;3.80;;;7.60;99.90;;;;;;5044750;28;20018;-93
2021/01/29 09:48:24;;;;;;;19.23;4.28;;;7.60;99.90;;;;;;5043675;28;20033;-95
2021/01/29 09:51:09;;;;;;;30.30;5.57;;;7.60;99.90;;;;;;5044569;28;20481;-94
2021/01/29 09:53:44;;;;;;;24.23;5.40;;;7.60;99.90;;;;;;5045465;28;20033;-92
2021/01/29 09:56:24;;;;;;;23.10;4.32;;;7.70;99.90;;;;;;5046293;28;20013;-93
2021/01/29 09:59:14;;;;;;;27.92;4.03;;;7.70;99.90;;;;;;5046184;28;20368;-94
2021/01/29 10:01:48;;;;;;;20.33;3.63;;;7.70;99.90;;;;;;5045970;28;20105;-95
2021/01/29 10:04:23;;;;;;;19.73;4.60;;;7.70;99.90;;;;;;5046063;28;20017;-95
2021/01/29 10:07:02;;;;;;;29.25;4.38;;;7.80;99.90;;;;;;5045386;28;20033;-95
2021/01/29 10:09:36;;;;;;;26.30;4.03;;;7.80;99.90;;;;;;5043614;28;20021;-94
2021/01/29 10:12:11;;;;;;;21.52;4.45;;;7.80;99.90;;;;;;5045676;28;20056;-94
2021/01/29 10:14:46;;;;;;;22.83;3.22;;;7.90;99.90;;;;;;5044575;28;20022;-94
2021/01/29 10:17:31;;;;;;;22.27;3.03;;;7.90;99.90;;;;;;5042738;28;20037;-94
2021/01/29 10:20:21;;;;;;;25.85;3.80;;;7.90;99.90;;;;;;5048089;28;20018;-94
2021/01/29 10:23:06;;;;;;;25.42;4.40;;;8.00;99.90;;;;;;5045886;28;20070;-95
2021/01/29 10:25:38;;;;;;;19.98;3.28;;;8.00;99.90;;;;;;5048250;28;20048;-93
2021/01/29 10:28:20;;;;;;;20.23;4.57;;;8.10;99.90;;;;;;5047020;28;20116;-91
2021/01/29 10:31:02;;;;;;;30.55;3.88;;;8.10;99.90;;;;;;5044457;28;20052;-93
2021/01/29 10:33:31;;;;;;;26.50;4.45;;;8.20;99.90;;;;;;5046334;28;20009;-93
2021/01/29 10:36:18;;;;;;;23.08;3.83;;;8.20;99.90;;;;;;5041839;28;20028;-95
2021/01/29 10:38:49;;;;;;;29.13;4.15;;;8.20;99.90;;;;;;5043718;28;20037;-93
2021/01/29 10:41:32;;;;;;;29.60;5.93;;;8.10;99.90;;;;;;5043599;28;20052;-92
2021/01/29 10:44:07;;;;;;;30.33;3.83;;;8.20;99.90;;;;;;5042206;28;20061;-92
2021/01/29 10:47:09;;;;;;;33.40;4.65;;;8.20;99.90;;;;;;5041677;28;20400;-96
2021/01/29 10:49:58;;;;;;;14.75;3.45;;;8.40;99.90;;;;;;5045544;28;20049;-95
2021/01/29 10:52:36;;;;;;;31.90;6.10;;;8.50;99.90;;;;;;5044336;28;20092;-95
2021/01/29 10:55:07;;;;;;;21.10;3.63;;;8.60;99.90;;;;;;5043353;28;20041;-93
2021/01/29 10:57:32;;;;;;;17.13;2.65;;;8.80;99.90;;;;;;5043119;28;20502;-94
2021/01/29 11:00:35;;;;;;;25.27;3.22;;;8.90;99.90;;;;;;5043074;28;20112;-94
2021/01/29 11:03:14;;;;;;;25.63;3.42;;;9.00;99.90;;;;;;5043349;28;20049;-94
2021/01/29 11:05:44;;;;;;;26.05;5.93;;;9.00;99.90;;;;;;5043314;28;20036;-94
2021/01/29 11:08:31;;;;;;;26.47;4.37;;;9.10;99.90;;;;;;5044321;28;20476;-94
2021/01/29 11:11:24;;;;;;;13.15;2.80;;;9.10;99.90;;;;;;5046529;28;20283;-92
2021/01/29 11:14:02;;;;;;;16.90;3.65;;;9.10;99.90;;;;;;5044608;28;20116;-93
2021/01/29 11:17:06;;;;;;;25.73;4.05;;;9.10;99.90;;;;;;5043303;28;20013;-92
2021/01/29 11:19:40;;;;;;;20.65;4.03;;;9.00;99.90;;;;;;5041848;28;20053;-92
2021/01/29 11:22:14;;;;;;;22.48;3.88;;;9.00;99.90;;;;;;5042029;28;20093;-91
2021/01/29 11:25:38;;;;;;;22.95;3.30;;;9.00;99.90;;;;;;5042687;28;20059;-93
2021/01/29 11:28:36;;;;;;;28.40;4.55;;;8.90;99.90;;;;;;4986572;28;20116;-94
2021/01/29 11:31:12;;;;;;;28.75;3.92;;;8.80;99.90;;;;;;4949822;28;20125;-93
2021/01/29 11:33:42;;;;;;;17.42;3.55;;;8.80;99.90;;;;;;4983441;28;20549;-92
2021/01/29 11:36:18;;;;;;;16.80;3.15;;;8.70;99.90;;;;;;4989303;28;20026;-93
2021/01/29 11:38:49;;;;;;;15.20;2.72;;;8.70;99.90;;;;;;4995831;28;20042;-93
2021/01/29 11:41:35;;;;;;;30.77;3.63;;;8.70;99.90;;;;;;4994454;28;20030;-93
2021/01/29 11:44:18;;;;;;;22.25;3.63;;;8.60;99.90;;;;;;4991140;28;20673;-94
2021/01/29 11:47:21;;;;;;;19.30;3.47;;;8.60;99.90;;;;;;4987162;28;20033;-93
2021/01/29 11:49:55;;;;;;;24.58;3.25;;;8.60;99.90;;;;;;4985299;28;20049;-95
2021/01/29 11:52:32;;;;;;;19.10;3.53;;;8.60;99.90;;;;;;4987155;28;20033;-93
2021/01/29 11:55:19;;;;;;;16.88;2.92;;;8.60;99.90;;;;;;4985075;28;20022;-93
2021/01/29 11:58:12;;;;;;;20.00;3.30;;;8.60;99.90;;;;;;4988562;28;20033;-92
2021/01/29 12:00:46;;;;;;;49.47;7.25;;;8.60;99.90;;;;;;5040825;28;20017;-95
2021/01/29 12:03:45;;;;;;;15.35;3.30;;;8.70;99.90;;;;;;5044552;28;20470;-92
2021/01/29 12:06:29;;;;;;;22.55;3.75;;;8.80;99.90;;;;;;5041608;28;20033;-92
2021/01/29 12:09:31;;;;;;;15.98;3.45;;;8.90;99.90;;;;;;5041028;28;20025;-92
2021/01/29 12:11:57;;;;;;;11.80;2.63;;;8.90;99.90;;;;;;5040523;28;20033;-92
2021/01/29 12:14:46;;;;;;;17.38;2.95;;;8.90;99.90;;;;;;5041839;28;20476;-94
2021/01/29 12:17:13;;;;;;;23.05;3.22;;;8.80;99.90;;;;;;5040885;28;20029;-94
2021/01/29 12:19:43;;;;;;;16.73;3.08;;;8.80;99.90;;;;;;5041469;28;20085;-94
2021/01/29 12:22:23;;;;;;;23.63;4.68;;;8.80;99.90;;;;;;5041724;28;20488;-94
2021/01/29 12:25:30;;;;;;;22.35;4.15;;;8.80;99.90;;;;;;5042627;28;20032;-94
2021/01/29 12:28:33;;;;;;;20.35;3.17;;;8.80;99.90;;;;;;4980580;28;20042;-94
2021/01/29 12:31:25;;;;;;;20.67;3.75;;;8.80;99.90;;;;;;4964695;28;20129;-94
2021/01/29 12:33:56;;;;;;;14.88;2.92;;;8.80;99.90;;;;;;4960580;28;20153;-94
2021/01/29 12:36:25;;;;;;;22.77;4.72;;;8.80;99.90;;;;;;4966007;28;20480;-94
2021/01/29 12:39:00;;;;;;;25.75;4.35;;;8.70;99.90;;;;;;4971231;28;20038;-94
2021/01/29 12:42:02;;;;;;;15.75;2.95;;;8.70;99.90;;;;;;4964203;28;20457;-94
2021/01/29 12:44:45;;;;;;;24.90;3.28;;;8.70;99.90;;;;;;4965231;28;20030;-93
2021/01/29 12:47:18;;;;;;;10.27;2.47;;;8.70;99.90;;;;;;4963781;28;20037;-94
2021/01/29 12:49:47;;;;;;;12.93;3.63;;;8.70;99.90;;;;;;4965972;28;20058;-94
2021/01/29 12:52:41;;;;;;;17.17;3.17;;;8.70;99.90;;;;;;4982237;28;20047;-94
2021/01/29 12:55:17;;;;;;;13.05;3.30;;;8.70;99.90;;;;;;4989217;28;20057;-93
2021/01/29 12:57:43;;;;;;;13.60;2.90;;;8.80;99.90;;;;;;4965640;28;20026;-94
2021/01/29 13:00:20;;;;;;;9.80;1.98;;;8.80;99.90;;;;;;4965872;28;20041;-95
2021/01/29 13:03:10;;;;;;;15.60;3.20;;;8.80;99.90;;;;;;5031123;28;20037;-96
2021/01/29 13:06:00;;;;;;;16.60;4.40;;;8.90;99.90;;;;;;5042579;28;20465;-95
2021/01/29 13:08:47;;;;;;;8.50;1.70;;;8.90;99.90;;;;;;5040485;28;20107;-93
2021/01/29 13:11:32;;;;;;;19.60;3.40;;;9.10;99.90;;;;;;5040420;28;20044;-94
2021/01/29 13:14:16;;;;;;;16.15;2.72;;;9.50;99.90;;;;;;5043815;28;20492;-93
2021/01/29 13:17:07;;;;;;;10.15;2.80;;;9.90;99.90;;;;;;5040426;28;20072;-96
2021/01/29 13:19:39;;;;;;;9.50;2.45;;;10.30;99.90;;;;;;5040900;28;20035;-94
2021/01/29 13:22:30;;;;;;;10.80;2.58;;;10.70;99.90;;;;;;5042121;28;20080;-96
2021/01/29 13:25:17;;;;;;;8.68;2.80;;;11.10;99.90;;;;;;5039987;28;20045;-94
2021/01/29 13:27:47;;;;;;;6.50;1.90;;;11.40;99.90;;;;;;5042256;28;20202;-94
2021/01/29 13:30:30;;;;;;;10.02;2.28;;;11.40;99.90;;;;;;5042580;28;20032;-95
2021/01/29 13:33:00;;;;;;;11.27;2.05;;;11.20;99.90;;;;;;5040629;28;20033;-96
2021/01/29 13:35:33;;;;;;;13.93;2.78;;;10.90;99.90;;;;;;5043227;28;20029;-95
2021/01/29 13:38:08;;;;;;;16.83;3.28;;;10.60;99.90;;;;;;5048468;28;20025;-95
2021/01/29 13:40:35;;;;;;;10.25;2.95;;;10.30;99.90;;;;;;5045671;28;20032;-95
2021/01/29 13:43:11;;;;;;;15.00;2.20;;;10.10;99.90;;;;;;5041896;28;20033;-95
2021/01/29 13:45:38;;;;;;;12.63;1.88;;;9.90;99.90;;;;;;5040206;28;20025;-94
2021/01/29 13:48:15;;;;;;;7.82;2.13;;;9.70;99.90;;;;;;5041345;28;20121;-94
2021/01/29 13:50:46;;;;;;;12.15;2.55;;;9.60;99.90;;;;;;5039039;28;20029;-94
2021/01/29 13:53:32;;;;;;;11.55;2.38;;;9.50;99.90;;;;;;5042610;28;20037;-95
2021/01/29 13:56:22;;;;;;;11.60;2.47;;;9.40;99.90;;;;;;5041897;28;20044;-95
2021/01/29 13:59:04;;;;;;;10.95;2.33;;;9.30;99.90;;;;;;5040793;28;20488;-95